Terminal Aerodrome Forecast
Issued by NWS Missoula, MT

Home | Current Version | Previous Version | Text Only | Print | Product List | Glossary On
Versions: 1 2 3 4 5 6 7 8 9 10 11 12 13 14 15 16 17
697
FTUS45 KMSO 211120
TAFBTM
TAF
KBTM 211120Z 2112/2212 15006KT P6SM SCT080
     FM212000 23008KT P6SM VCSH BKN050
     FM220400 VRB03KT P6SM SCT030 OVC050=

USA.gov is the U.S. government's official web portal to all federal, state and local government web resources and services.